createdAt,value
2023-03-16T00:02:24.488Z,-0.73
2023-03-16T00:07:30.462Z,-0.76
2023-03-16T00:12:35.854Z,-0.89
2023-03-16T00:17:41.283Z,-1.07
2023-03-16T00:22:46.802Z,-1.27
2023-03-16T00:27:52.606Z,-1.44
2023-03-16T00:32:58.192Z,-1.57
2023-03-16T00:38:03.934Z,-1.68
2023-03-16T00:43:09.390Z,-1.76
2023-03-16T00:48:16.559Z,-1.75
2023-03-16T00:53:22.189Z,-1.66
2023-03-16T00:58:36.131Z,-1.49
2023-03-16T01:03:42.085Z,-1.35
2023-03-16T01:08:47.946Z,-1.32
2023-03-16T01:13:54.342Z,-1.38
2023-03-16T01:19:00.026Z,-1.49
2023-03-16T01:24:06.934Z,-1.60
2023-03-16T01:29:12.706Z,-1.75
2023-03-16T01:34:18.755Z,-1.90
2023-03-16T01:39:24.378Z,-2.04
2023-03-16T01:44:35.184Z,-2.17
2023-03-16T01:49:48.066Z,-2.24
2023-03-16T01:54:57.328Z,-2.21
2023-03-16T02:00:10.842Z,-2.03
2023-03-16T02:05:31.125Z,-1.94
2023-03-16T02:10:37.432Z,-1.98
2023-03-16T02:15:43.265Z,-2.06
2023-03-16T02:20:57.342Z,-2.16
2023-03-16T02:26:13.230Z,-2.25
2023-03-16T02:31:19.627Z,-2.36
2023-03-16T02:36:25.950Z,-2.48
2023-03-16T02:41:33.056Z,-2.58
2023-03-16T02:46:40.769Z,-2.61
2023-03-16T02:51:48.313Z,-2.58
2023-03-16T02:56:54.497Z,-2.48
2023-03-16T03:02:01.384Z,-2.43
2023-03-16T03:07:07.304Z,-2.44
2023-03-16T03:12:24.774Z,-2.52
2023-03-16T03:17:30.402Z,-2.64
2023-03-16T03:22:36.475Z,-2.80
2023-03-16T03:27:42.528Z,-2.94
2023-03-16T03:32:49.447Z,-3.02
2023-03-16T03:37:56.771Z,-3.09
2023-03-16T03:43:02.976Z,-3.14
2023-03-16T03:48:09.496Z,-3.14
2023-03-16T03:53:15.050Z,-3.08
2023-03-16T03:58:41.719Z,-2.92
2023-03-16T04:03:47.785Z,-2.77
2023-03-16T04:08:54.512Z,-2.75
2023-03-16T04:14:01.868Z,-2.87
2023-03-16T04:19:07.597Z,-2.99
2023-03-16T04:24:14.852Z,-3.11
2023-03-16T04:29:20.731Z,-3.21
2023-03-16T04:34:26.392Z,-3.29
2023-03-16T04:39:34.478Z,-3.35
2023-03-16T04:44:44.468Z,-3.37
2023-03-16T04:49:51.351Z,-3.32
2023-03-16T04:54:57.133Z,-3.16
2023-03-16T05:00:11.563Z,-2.95
2023-03-16T05:05:21.806Z,-2.74
2023-03-16T05:10:28.140Z,-2.70
2023-03-16T05:15:36.365Z,-2.68
2023-03-16T05:20:58.068Z,-2.68
2023-03-16T05:26:08.167Z,-2.67
2023-03-16T05:31:15.677Z,-2.63
2023-03-16T05:36:26.054Z,-2.54
2023-03-16T05:41:34.805Z,-2.36
2023-03-16T05:47:06.809Z,-2.02
2023-03-16T05:52:14.795Z,-1.71
2023-03-16T05:57:20.485Z,-1.41
2023-03-16T06:02:27.287Z,-1.09
2023-03-16T06:07:33.827Z,-0.78
2023-03-16T06:12:39.796Z,-0.31
2023-03-16T06:17:45.536Z,0.75
2023-03-16T06:22:51.377Z,2.19
2023-03-16T06:27:57.027Z,4.17
2023-03-16T06:33:03.482Z,6.28
2023-03-16T06:38:09.425Z,9.02
2023-03-16T06:43:34.294Z,11.86
2023-03-16T06:48:40.713Z,14.16
2023-03-16T06:53:48.903Z,15.88
2023-03-16T06:58:59.580Z,17.76
2023-03-16T07:04:05.990Z,19.04
2023-03-16T07:09:14.439Z,19.73
2023-03-16T07:14:24.803Z,20.40
2023-03-16T07:19:31.693Z,20.95
2023-03-16T07:24:40.083Z,21.79
2023-03-16T07:29:46.953Z,22.09
2023-03-16T07:34:54.508Z,22.19
2023-03-16T07:40:05.214Z,22.77
2023-03-16T07:45:14.664Z,22.99
2023-03-16T07:50:22.449Z,22.77
2023-03-16T07:55:28.945Z,22.84
2023-03-16T08:00:36.525Z,22.91
2023-03-16T08:05:44.105Z,23.00
2023-03-16T08:10:56.849Z,22.84
2023-03-16T08:16:13.627Z,22.98
2023-03-16T08:21:23.896Z,23.29
2023-03-16T08:26:32.512Z,23.56
2023-03-16T08:31:39.765Z,23.58
2023-03-16T08:37:01.208Z,23.82
2023-03-16T08:42:08.847Z,23.86
2023-03-16T08:47:20.522Z,23.94
2023-03-16T08:52:27.904Z,24.16
2023-03-16T08:57:34.748Z,24.44
2023-03-16T09:02:44.581Z,24.46
2023-03-16T09:07:52.023Z,24.44
2023-03-16T09:13:02.719Z,23.39
2023-03-16T09:18:11.596Z,23.33
2023-03-16T09:23:19.454Z,22.75
2023-03-16T09:28:27.483Z,22.97
2023-03-16T09:33:35.495Z,23.09
2023-03-16T09:38:42.526Z,23.34
2023-03-16T09:44:10.600Z,23.66
2023-03-16T09:49:19.949Z,23.67
2023-03-16T09:54:32.246Z,23.52
2023-03-16T09:59:39.093Z,23.40
2023-03-16T10:04:55.740Z,23.19
2023-03-16T10:10:18.586Z,22.11
2023-03-16T10:15:29.697Z,19.11
2023-03-16T10:20:36.639Z,18.80
2023-03-16T10:25:46.856Z,18.20
2023-03-16T10:30:55.766Z,16.88
2023-03-16T10:36:15.579Z,15.32
2023-03-16T10:41:27.125Z,13.88
2023-03-16T10:46:39.506Z,12.81
2023-03-16T10:51:46.610Z,12.34
2023-03-16T10:56:56.748Z,12.06
2023-03-16T11:02:20.780Z,11.55
2023-03-16T11:07:28.053Z,12.94
2023-03-16T11:12:36.753Z,14.44
2023-03-16T11:17:45.960Z,14.99
2023-03-16T11:22:52.000Z,14.19
2023-03-16T11:28:15.824Z,12.88
2023-03-16T11:33:23.073Z,11.78
2023-03-16T11:38:38.734Z,11.07
2023-03-16T11:43:53.513Z,10.26
2023-03-16T11:49:34.685Z,9.83
2023-03-16T11:54:54.387Z,9.52
2023-03-16T12:00:15.264Z,9.34
2023-03-16T12:05:30.408Z,9.09
2023-03-16T12:10:45.800Z,8.87
2023-03-16T12:15:55.292Z,8.71
2023-03-16T12:21:05.763Z,8.54
2023-03-16T12:26:17.685Z,8.36
2023-03-16T12:31:36.376Z,8.12
2023-03-16T12:36:51.118Z,7.86
2023-03-16T12:42:09.794Z,7.64
2023-03-16T12:47:28.262Z,7.52
2023-03-16T12:52:46.999Z,7.42
2023-03-16T12:58:01.911Z,7.46
2023-03-16T13:03:15.495Z,7.58
2023-03-16T13:08:23.969Z,7.75
2023-03-16T13:13:30.480Z,7.88
2023-03-16T13:18:41.794Z,7.87
2023-03-16T13:23:58.526Z,7.80
2023-03-16T13:29:21.699Z,7.69
2023-03-16T13:34:31.865Z,7.61
2023-03-16T13:39:56.107Z,7.47
2023-03-16T13:45:14.337Z,7.32
2023-03-16T13:50:21.615Z,7.26
2023-03-16T13:55:32.923Z,7.20
2023-03-16T14:00:47.049Z,7.03
2023-03-16T14:05:53.627Z,6.93
2023-03-16T14:11:01.505Z,6.87
2023-03-16T14:16:17.817Z,6.91
2023-03-16T14:21:26.975Z,6.90
2023-03-16T14:26:42.387Z,6.84
2023-03-16T14:31:48.519Z,6.77
2023-03-16T14:37:04.955Z,6.72
2023-03-16T14:42:20.047Z,6.69
2023-03-16T14:47:28.115Z,6.64
2023-03-16T14:52:34.778Z,6.64
2023-03-16T14:57:41.770Z,6.59
2023-03-16T15:02:57.768Z,6.55
2023-03-16T15:08:05.514Z,6.49
2023-03-16T15:13:34.523Z,6.37
2023-03-16T15:18:40.480Z,6.25
2023-03-16T15:23:46.867Z,6.12
2023-03-16T15:28:52.682Z,5.96
2023-03-16T15:33:58.238Z,5.86
2023-03-16T15:39:05.490Z,5.77
2023-03-16T15:44:14.391Z,5.69
2023-03-16T15:49:19.906Z,5.68
2023-03-16T15:54:26.178Z,5.75
2023-03-16T15:59:36.577Z,5.72
2023-03-16T16:04:43.568Z,5.60
2023-03-16T16:09:49.797Z,5.44
2023-03-16T16:14:56.954Z,5.29
2023-03-16T16:20:11.773Z,5.08
2023-03-16T16:25:18.638Z,4.79
2023-03-16T16:30:27.637Z,4.56
2023-03-16T16:35:36.581Z,4.36
2023-03-16T16:40:45.987Z,4.13
2023-03-16T16:45:51.778Z,3.95
2023-03-16T16:50:57.309Z,3.77
2023-03-16T16:56:03.140Z,3.53
2023-03-16T17:01:14.227Z,3.17
2023-03-16T17:06:19.212Z,2.80
2023-03-16T17:11:29.092Z,2.54
2023-03-16T17:16:37.449Z,2.37
2023-03-16T17:21:44.038Z,2.15
2023-03-16T17:26:55.032Z,1.95
2023-03-16T17:32:01.131Z,1.72
2023-03-16T17:37:12.652Z,1.51
2023-03-16T17:42:20.091Z,1.30
2023-03-16T17:47:28.617Z,1.06
2023-03-16T17:52:38.287Z,0.87
2023-03-16T17:57:43.647Z,0.72
2023-03-16T18:02:56.241Z,0.56
2023-03-16T18:08:13.073Z,0.44
2023-03-16T18:13:22.544Z,0.28
2023-03-16T18:18:30.112Z,0.14
2023-03-16T18:23:36.870Z,0.03
2023-03-16T18:28:43.884Z,-0.04
2023-03-16T18:33:52.763Z,-0.05
2023-03-16T18:39:01.656Z,-0.06
2023-03-16T18:44:17.260Z,0.04
2023-03-16T18:49:27.263Z,0.24
2023-03-16T18:54:36.792Z,0.52
2023-03-16T18:59:42.835Z,0.71
2023-03-16T19:04:48.479Z,0.85
2023-03-16T19:09:54.045Z,0.88
2023-03-16T19:14:59.515Z,0.83
2023-03-16T19:20:05.277Z,0.67
2023-03-16T19:25:18.417Z,0.52
2023-03-16T19:30:26.888Z,0.38
2023-03-16T19:35:50.343Z,0.17
2023-03-16T19:40:58.429Z,-0.09
2023-03-16T19:46:04.018Z,-0.36
2023-03-16T19:51:13.451Z,-0.55
2023-03-16T19:56:21.545Z,-0.63
2023-03-16T20:01:32.732Z,-0.66
2023-03-16T20:06:38.574Z,-0.63
2023-03-16T20:11:45.067Z,-0.52
2023-03-16T20:16:51.103Z,-0.42
2023-03-16T20:21:56.781Z,-0.34
2023-03-16T20:27:02.886Z,-0.32
2023-03-16T20:32:17.057Z,-0.33
2023-03-16T20:37:25.354Z,-0.33
2023-03-16T20:42:32.769Z,-0.19
2023-03-16T20:47:38.129Z,-0.03
2023-03-16T20:52:44.505Z,0.07
2023-03-16T20:57:52.020Z,0.12
2023-03-16T21:02:58.627Z,0.08
2023-03-16T21:08:04.112Z,-0.06
2023-03-16T21:13:19.312Z,-0.19
2023-03-16T21:18:24.926Z,-0.33
2023-03-16T21:23:30.796Z,-0.57
2023-03-16T21:28:36.709Z,-0.66
2023-03-16T21:33:43.327Z,-0.63
2023-03-16T21:38:51.694Z,-0.55
2023-03-16T21:43:57.529Z,-0.51
2023-03-16T21:49:04.580Z,-0.64
2023-03-16T21:54:14.953Z,-0.84
2023-03-16T21:59:22.096Z,-0.94
2023-03-16T22:04:28.559Z,-1.07
2023-03-16T22:09:34.064Z,-1.24
2023-03-16T22:14:39.573Z,-1.32
2023-03-16T22:19:45.007Z,-1.34
2023-03-16T22:24:50.415Z,-1.35
2023-03-16T22:29:55.888Z,-1.38
2023-03-16T22:35:01.372Z,-1.51
2023-03-16T22:40:16.328Z,-1.65
2023-03-16T22:45:25.614Z,-1.69
2023-03-16T22:50:34.093Z,-1.75
2023-03-16T22:55:40.880Z,-1.83
2023-03-16T23:00:46.312Z,-1.89
2023-03-16T23:05:52.345Z,-1.98
2023-03-16T23:10:58.503Z,-2.01
2023-03-16T23:16:04.432Z,-1.93
2023-03-16T23:21:15.451Z,-1.83
2023-03-16T23:26:24.528Z,-1.80
2023-03-16T23:31:31.555Z,-1.82
2023-03-16T23:36:37.190Z,-1.90
2023-03-16T23:41:45.655Z,-2.00
2023-03-16T23:46:51.505Z,-2.09
2023-03-16T23:51:58.452Z,-2.25
2023-03-16T23:57:03.933Z,-2.35
